createdAt,value
2022-08-25T00:00:44.149Z,102063.72
2022-08-25T00:05:51.462Z,102066.56
2022-08-25T00:11:03.238Z,102057.09
2022-08-25T00:16:08.657Z,102049.44
2022-08-25T00:21:16.591Z,102037.81
2022-08-25T00:26:21.013Z,102040.44
2022-08-25T00:31:37.917Z,102042.22
2022-08-25T00:36:43.327Z,102043.16
2022-08-25T00:41:50.329Z,102037.81
2022-08-25T00:46:55.170Z,102029.13
2022-08-25T00:52:10.950Z,102036.00
2022-08-25T00:57:34.508Z,102038.03
2022-08-25T01:02:40.069Z,102037.28
2022-08-25T01:07:44.642Z,102038.69
2022-08-25T01:12:46.682Z,102051.94
2022-08-25T01:17:50.893Z,102049.31
2022-08-25T01:22:55.539Z,102053.19
2022-08-25T01:28:03.233Z,102048.81
2022-08-25T01:33:09.946Z,102044.03
2022-08-25T01:38:15.301Z,102041.63
2022-08-25T01:43:35.980Z,102051.56
2022-08-25T01:48:44.255Z,102043.94
2022-08-25T01:53:46.015Z,102057.06
2022-08-25T01:58:51.221Z,102048.09
2022-08-25T02:03:56.713Z,102049.03
2022-08-25T02:09:02.579Z,102039.88
2022-08-25T02:14:09.800Z,102042.88
2022-08-25T02:19:15.562Z,102033.50
2022-08-25T02:24:17.301Z,102039.63
2022-08-25T02:29:20.058Z,102038.66
2022-08-25T02:34:24.313Z,102042.88
2022-08-25T02:39:26.258Z,102042.72
2022-08-25T02:44:31.741Z,102037.94
2022-08-25T02:49:33.600Z,102044.88
2022-08-25T02:54:36.323Z,102044.31
2022-08-25T02:59:39.235Z,102038.47
2022-08-25T03:04:41.056Z,102041.88
2022-08-25T03:09:48.520Z,102040.50
2022-08-25T03:14:54.986Z,102032.78
2022-08-25T03:19:57.754Z,102026.09
2022-08-25T03:25:23.882Z,102034.13
2022-08-25T03:30:29.475Z,102029.13
2022-08-25T03:35:35.937Z,102028.75
2022-08-25T03:40:39.957Z,102030.69
2022-08-25T03:45:46.089Z,102036.34
2022-08-25T03:50:54.396Z,102031.53
2022-08-25T03:55:57.742Z,102025.69
2022-08-25T04:01:00.650Z,102031.59
2022-08-25T04:06:04.316Z,102031.19
2022-08-25T04:11:17.784Z,102027.25
2022-08-25T04:16:22.015Z,102028.75
2022-08-25T04:21:29.409Z,102025.41
2022-08-25T04:26:39.165Z,102029.41
2022-08-25T04:31:42.782Z,102024.22
2022-08-25T04:36:47.283Z,102021.44
2022-08-25T04:41:54.495Z,102011.25
2022-08-25T04:47:04.698Z,101999.19
2022-08-25T04:52:12.978Z,102002.31
2022-08-25T04:57:16.152Z,101999.59
2022-08-25T05:02:25.291Z,102000.66
2022-08-25T05:07:27.277Z,102006.25
2022-08-25T05:12:29.065Z,102011.44
2022-08-25T05:17:30.864Z,102008.94
2022-08-25T05:22:35.061Z,102011.22
2022-08-25T05:27:39.039Z,102007.22
2022-08-25T05:32:45.591Z,102013.91
2022-08-25T05:37:51.653Z,102017.44
2022-08-25T05:42:56.843Z,102010.72
2022-08-25T05:47:58.645Z,102006.44
2022-08-25T05:53:00.451Z,102007.53
2022-08-25T05:58:05.245Z,102013.84
2022-08-25T06:03:08.056Z,102002.91
2022-08-25T06:08:12.196Z,102015.88
2022-08-25T06:13:18.824Z,102010.16
2022-08-25T06:18:31.111Z,102003.38
2022-08-25T06:23:35.077Z,102010.19
2022-08-25T06:28:39.200Z,102010.72
2022-08-25T06:33:40.985Z,102010.19
2022-08-25T06:38:47.611Z,102008.59
2022-08-25T06:43:55.945Z,102007.84
2022-08-25T06:49:06.751Z,102005.81
2022-08-25T06:54:10.988Z,102008.63
2022-08-25T06:59:12.897Z,101999.94
2022-08-25T07:04:23.298Z,102003.28
2022-08-25T07:09:29.970Z,102001.47
2022-08-25T07:14:36.395Z,102009.88
2022-08-25T07:19:38.225Z,102004.13
2022-08-25T07:24:45.506Z,102002.00
2022-08-25T07:29:50.087Z,102011.69
2022-08-25T07:35:13.839Z,102005.91
2022-08-25T07:40:23.874Z,102012.53
2022-08-25T07:45:32.736Z,102007.69
2022-08-25T07:50:35.598Z,102012.91
2022-08-25T07:55:38.068Z,102018.88
2022-08-25T08:00:43.326Z,101999.81
2022-08-25T08:05:49.054Z,101991.72
2022-08-25T08:11:05.537Z,101996.56
2022-08-25T08:16:13.948Z,101996.38
2022-08-25T08:21:26.843Z,101985.16
2022-08-25T08:26:55.230Z,101993.31
2022-08-25T08:31:56.849Z,101993.84
2022-08-25T08:36:59.374Z,101993.75
2022-08-25T08:42:19.783Z,101981.19
2022-08-25T08:47:43.144Z,101984.25
2022-08-25T08:53:01.363Z,101979.34
2022-08-25T08:58:10.707Z,101989.66
2022-08-25T09:03:40.398Z,101990.44
2022-08-25T09:08:44.974Z,101977.84
2022-08-25T09:14:13.590Z,101967.34
2022-08-25T09:19:41.783Z,101955.25
2022-08-25T09:25:39.685Z,101951.81
2022-08-25T09:30:50.627Z,101952.16
2022-08-25T09:35:57.549Z,101956.03
2022-08-25T09:41:03.856Z,101960.91
2022-08-25T09:46:20.739Z,101945.19
2022-08-25T09:51:42.951Z,101938.19
2022-08-25T09:57:05.471Z,101927.03
2022-08-25T10:02:28.986Z,101931.81
2022-08-25T10:07:39.884Z,101914.00
2022-08-25T10:12:44.753Z,101912.38
2022-08-25T10:17:56.588Z,101899.25
2022-08-25T10:23:18.977Z,101892.38
2022-08-25T10:28:38.421Z,101878.41
2022-08-25T10:34:02.035Z,101877.91
2022-08-25T10:39:31.575Z,101878.22
2022-08-25T10:45:23.434Z,101868.56
2022-08-25T10:50:49.078Z,101862.81
2022-08-25T10:56:21.007Z,101849.91
2022-08-25T11:01:43.745Z,101841.06
2022-08-25T11:07:04.788Z,101829.22
2022-08-25T11:12:13.601Z,101815.97
2022-08-25T11:17:18.699Z,101806.56
2022-08-25T11:22:46.623Z,101810.38
2022-08-25T11:27:50.293Z,101804.50
2022-08-25T11:32:55.693Z,101793.91
2022-08-25T11:38:09.111Z,101792.88
2022-08-25T11:43:35.996Z,101780.00
2022-08-25T11:48:53.217Z,101775.22
2022-08-25T11:54:24.766Z,101774.25
2022-08-25T11:59:50.321Z,101774.50
2022-08-25T12:04:55.603Z,101765.59
2022-08-25T12:10:03.268Z,101755.88
2022-08-25T12:15:20.621Z,101762.25
2022-08-25T12:20:54.907Z,101765.63
2022-08-25T12:26:12.597Z,101755.53
2022-08-25T12:31:59.130Z,101749.31
2022-08-25T12:37:15.907Z,101735.00
2022-08-25T12:42:37.942Z,101743.16
2022-08-25T12:47:47.414Z,101738.25
2022-08-25T12:52:49.378Z,101732.47
2022-08-25T12:57:58.719Z,101735.53
2022-08-25T13:03:27.736Z,101734.69
2022-08-25T13:08:46.656Z,101731.91
2022-08-25T13:13:55.364Z,101731.78
2022-08-25T13:18:59.560Z,101721.34
2022-08-25T13:24:05.890Z,101705.53
2022-08-25T13:29:10.829Z,101705.19
2022-08-25T13:34:23.931Z,101704.50
2022-08-25T13:39:55.415Z,101686.84
2022-08-25T13:45:01.379Z,101693.81
2022-08-25T13:50:33.815Z,101689.75
2022-08-25T13:55:51.236Z,101697.78
2022-08-25T14:01:47.747Z,101682.25
2022-08-25T14:06:48.942Z,101679.03
2022-08-25T14:11:59.508Z,101669.91
2022-08-25T14:17:28.618Z,101663.63
2022-08-25T14:22:34.619Z,101657.28
2022-08-25T14:28:05.349Z,101651.81
2022-08-25T14:33:09.691Z,101655.53
2022-08-25T14:38:12.155Z,101646.91
2022-08-25T14:43:17.131Z,101642.16
2022-08-25T14:48:27.381Z,101638.44
2022-08-25T14:53:33.314Z,101629.72
2022-08-25T14:58:51.123Z,101619.34
2022-08-25T15:03:58.243Z,101617.13
2022-08-25T15:09:11.310Z,101615.09
2022-08-25T15:14:17.482Z,101604.66
2022-08-25T15:19:23.528Z,101599.09
2022-08-25T15:24:28.699Z,101599.56
2022-08-25T15:29:31.914Z,101595.28
2022-08-25T15:34:37.194Z,101590.13
2022-08-25T15:39:43.264Z,101582.88
2022-08-25T15:44:53.550Z,101587.00
2022-08-25T15:50:04.541Z,101572.56
2022-08-25T15:55:10.707Z,101568.09
2022-08-25T16:00:16.762Z,101568.66
2022-08-25T16:05:26.269Z,101571.72
2022-08-25T16:10:31.301Z,101568.41
2022-08-25T16:15:38.987Z,101568.41
2022-08-25T16:20:46.368Z,101554.72
2022-08-25T16:25:58.215Z,101551.81
2022-08-25T16:31:03.843Z,101552.22
2022-08-25T16:36:16.837Z,101546.03
2022-08-25T16:41:26.089Z,101532.38
2022-08-25T16:46:30.467Z,101527.81
2022-08-25T16:51:37.526Z,101531.75
2022-08-25T16:56:42.237Z,101521.41
2022-08-25T17:01:47.224Z,101518.56
2022-08-25T17:06:56.238Z,101524.13
2022-08-25T17:12:05.153Z,101523.03
2022-08-25T17:17:07.386Z,101517.31
2022-08-25T17:22:14.257Z,101519.91
2022-08-25T17:27:19.163Z,101514.72
2022-08-25T17:32:28.848Z,101521.47
2022-08-25T17:37:32.093Z,101523.34
2022-08-25T17:42:36.187Z,101518.72
2022-08-25T17:47:40.399Z,101526.66
2022-08-25T17:52:42.331Z,101519.94
2022-08-25T17:57:44.097Z,101525.50
2022-08-25T18:02:52.354Z,101529.25
2022-08-25T18:07:54.422Z,101529.06
2022-08-25T18:13:02.074Z,101537.94
2022-08-25T18:18:04.918Z,101540.78
2022-08-25T18:23:09.694Z,101545.78
2022-08-25T18:28:12.081Z,101546.38
2022-08-25T18:33:14.482Z,101549.72
2022-08-25T18:38:37.556Z,101544.31
2022-08-25T18:43:41.851Z,101552.44
2022-08-25T18:48:47.529Z,101564.56
2022-08-25T18:53:54.701Z,101563.09
2022-08-25T18:59:07.811Z,101555.47
2022-08-25T19:04:11.788Z,101558.88
2022-08-25T19:09:15.952Z,101564.75
2022-08-25T19:14:20.239Z,101563.47
2022-08-25T19:19:24.308Z,101561.66
2022-08-25T19:24:29.800Z,101554.81
2022-08-25T19:29:35.037Z,101558.16
2022-08-25T19:34:42.068Z,101560.66
2022-08-25T19:39:52.928Z,101561.81
2022-08-25T19:44:55.609Z,101556.63
2022-08-25T19:49:58.523Z,101560.47
2022-08-25T19:55:05.551Z,101554.97
2022-08-25T20:00:14.176Z,101553.34
2022-08-25T20:05:23.591Z,101551.16
2022-08-25T20:10:28.312Z,101553.66
2022-08-25T20:15:34.372Z,101553.66
2022-08-25T20:20:44.289Z,101560.53
2022-08-25T20:25:46.061Z,101553.09
2022-08-25T20:30:47.906Z,101555.00
2022-08-25T20:35:50.808Z,101550.63
2022-08-25T20:40:55.032Z,101553.91
2022-08-25T20:46:01.517Z,101551.97
2022-08-25T20:51:07.518Z,101549.19
2022-08-25T20:56:16.634Z,101551.94
2022-08-25T21:01:24.149Z,101552.16
2022-08-25T21:06:28.427Z,101554.06
2022-08-25T21:11:35.216Z,101551.56
2022-08-25T21:16:38.209Z,101549.59
2022-08-25T21:21:40.499Z,101552.59
2022-08-25T21:26:48.814Z,101548.16
2022-08-25T21:31:54.023Z,101546.47
2022-08-25T21:37:04.458Z,101545.94
2022-08-25T21:47:11.452Z,101545.00
2022-08-25T21:52:17.731Z,101534.25
2022-08-25T21:57:23.796Z,101536.94
2022-08-25T22:02:29.935Z,101542.63
2022-08-25T22:07:34.622Z,101538.47
2022-08-25T22:12:42.077Z,101528.84
2022-08-25T22:17:48.191Z,101521.44
2022-08-25T22:22:52.560Z,101515.63
2022-08-25T22:27:56.667Z,101515.34
2022-08-25T22:32:59.842Z,101523.47
2022-08-25T22:38:04.863Z,101530.00
2022-08-25T22:43:10.950Z,101521.47
2022-08-25T22:48:12.867Z,101515.63
2022-08-25T22:53:15.444Z,101526.50
2022-08-25T22:58:17.155Z,101525.38
2022-08-25T23:03:22.221Z,101518.97
2022-08-25T23:08:39.186Z,101527.38
2022-08-25T23:13:47.390Z,101521.03
2022-08-25T23:18:53.931Z,101525.88
2022-08-25T23:23:58.589Z,101517.88
2022-08-25T23:29:00.653Z,101509.63
2022-08-25T23:34:05.552Z,101501.38
2022-08-25T23:39:09.800Z,101500.22
2022-08-25T23:44:17.191Z,101493.28
2022-08-25T23:49:24.251Z,101494.63
2022-08-25T23:54:31.854Z,101497.28
2022-08-25T23:59:34.371Z,101494.75
